Retalhuleu, Guatemala
Current Conditions -  °F | °C
As of 2:40 PM on Monday 20 Oct 2014 (Local Time) from MMTP Reporting Station
Overcast Overcast  
Wind Chill: 79°   Ceiling: 15000
Heat Index: 83°   Visibility: 7mi
Dew Point: 77°   Wind: 0mph
Humidity: 94%   Direction: NA
Pressure: 29.82"   Gusts: NA
Location:  14.54°N, 91.69°W
Report Text: MMTP 202040Z 00000KT 7SM SCT020TCU OVC150 26/25 A2982 8/25/
Loading
Personal Weather Stations






























Interactive Weather Map
Tropical Storm Tracking
New forecast layout! Learn more

10-Day Weather Forecast

Advertisements
Track Severe Weather on mobile